sensor_id;sensor_type;location;lat;lon;timestamp;P1;durP1;ratioP1;P2;durP2;ratioP2
27558;SDS011;15002;52.028;5.670;2022-10-16T00:01:26;6.85;;;3.70;;
27558;SDS011;15002;52.028;5.670;2022-10-16T00:03:55;8.50;;;3.30;;
27558;SDS011;15002;52.028;5.670;2022-10-16T00:06:22;7.57;;;3.20;;
27558;SDS011;15002;52.028;5.670;2022-10-16T00:08:48;6.88;;;3.17;;
27558;SDS011;15002;52.028;5.670;2022-10-16T00:11:15;5.40;;;3.38;;
27558;SDS011;15002;52.028;5.670;2022-10-16T00:13:46;6.07;;;4.20;;
27558;SDS011;15002;52.028;5.670;2022-10-16T00:16:13;10.50;;;4.07;;
27558;SDS011;15002;52.028;5.670;2022-10-16T00:18:39;9.98;;;4.80;;
27558;SDS011;15002;52.028;5.670;2022-10-16T00:21:06;7.55;;;4.07;;
27558;SDS011;15002;52.028;5.670;2022-10-16T00:23:34;7.38;;;4.32;;
27558;SDS011;15002;52.028;5.670;2022-10-16T00:26:04;6.20;;;4.20;;
27558;SDS011;15002;52.028;5.670;2022-10-16T00:28:32;8.40;;;3.67;;
27558;SDS011;15002;52.028;5.670;2022-10-16T00:30:58;9.15;;;3.90;;
27558;SDS011;15002;52.028;5.670;2022-10-16T00:33:27;7.55;;;4.28;;
27558;SDS011;15002;52.028;5.670;2022-10-16T00:35:52;8.63;;;4.07;;
27558;SDS011;15002;52.028;5.670;2022-10-16T00:38:18;7.45;;;4.05;;
27558;SDS011;15002;52.028;5.670;2022-10-16T00:40:43;6.72;;;4.00;;
27558;SDS011;15002;52.028;5.670;2022-10-16T00:43:12;5.53;;;3.75;;
27558;SDS011;15002;52.028;5.670;2022-10-16T00:45:39;8.02;;;4.20;;
27558;SDS011;15002;52.028;5.670;2022-10-16T00:48:06;10.27;;;4.68;;
27558;SDS011;15002;52.028;5.670;2022-10-16T00:50:38;7.20;;;3.78;;
27558;SDS011;15002;52.028;5.670;2022-10-16T00:53:08;6.78;;;4.20;;
27558;SDS011;15002;52.028;5.670;2022-10-16T00:55:33;6.68;;;4.10;;
27558;SDS011;15002;52.028;5.670;2022-10-16T00:57:59;11.63;;;6.07;;
27558;SDS011;15002;52.028;5.670;2022-10-16T01:00:26;7.68;;;4.43;;
27558;SDS011;15002;52.028;5.670;2022-10-16T01:02:53;6.90;;;4.10;;
27558;SDS011;15002;52.028;5.670;2022-10-16T01:05:30;6.70;;;4.25;;
27558;SDS011;15002;52.028;5.670;2022-10-16T01:08:16;7.72;;;4.07;;
27558;SDS011;15002;52.028;5.670;2022-10-16T01:10:54;10.88;;;4.75;;
27558;SDS011;15002;52.028;5.670;2022-10-16T01:13:26;6.10;;;4.28;;
27558;SDS011;15002;52.028;5.670;2022-10-16T01:18:52;8.20;;;4.47;;
27558;SDS011;15002;52.028;5.670;2022-10-16T01:21:23;8.02;;;4.25;;
27558;SDS011;15002;52.028;5.670;2022-10-16T01:24:06;7.07;;;4.07;;
27558;SDS011;15002;52.028;5.670;2022-10-16T01:27:04;10.30;;;4.22;;
27558;SDS011;15002;52.028;5.670;2022-10-16T01:29:42;9.63;;;6.55;;
27558;SDS011;15002;52.028;5.670;2022-10-16T01:32:17;8.80;;;4.93;;
27558;SDS011;15002;52.028;5.670;2022-10-16T01:40:29;23.60;;;16.30;;
27558;SDS011;15002;52.028;5.670;2022-10-16T01:43:16;20.25;;;13.20;;
27558;SDS011;15002;52.028;5.670;2022-10-16T01:45:45;21.08;;;11.95;;
27558;SDS011;15002;52.028;5.670;2022-10-16T01:48:13;17.83;;;11.60;;
27558;SDS011;15002;52.028;5.670;2022-10-16T01:50:43;18.77;;;12.27;;
27558;SDS011;15002;52.028;5.670;2022-10-16T01:55:40;26.65;;;17.65;;
27558;SDS011;15002;52.028;5.670;2022-10-16T01:58:10;26.20;;;17.35;;
27558;SDS011;15002;52.028;5.670;2022-10-16T02:00:38;12.70;;;7.82;;
27558;SDS011;15002;52.028;5.670;2022-10-16T02:03:07;15.65;;;9.95;;
27558;SDS011;15002;52.028;5.670;2022-10-16T02:08:10;23.55;;;16.10;;
27558;SDS011;15002;52.028;5.670;2022-10-16T02:10:36;9.48;;;7.50;;
27558;SDS011;15002;52.028;5.670;2022-10-16T02:13:11;6.35;;;4.47;;
27558;SDS011;15002;52.028;5.670;2022-10-16T02:15:40;6.95;;;5.03;;
27558;SDS011;15002;52.028;5.670;2022-10-16T02:18:06;7.25;;;4.93;;
27558;SDS011;15002;52.028;5.670;2022-10-16T02:20:39;9.35;;;6.47;;
27558;SDS011;15002;52.028;5.670;2022-10-16T02:23:15;12.43;;;8.03;;
27558;SDS011;15002;52.028;5.670;2022-10-16T02:25:54;16.40;;;10.43;;
27558;SDS011;15002;52.028;5.670;2022-10-16T02:28:24;14.15;;;9.23;;
27558;SDS011;15002;52.028;5.670;2022-10-16T02:30:58;25.73;;;15.63;;
27558;SDS011;15002;52.028;5.670;2022-10-16T02:33:27;36.33;;;23.15;;
27558;SDS011;15002;52.028;5.670;2022-10-16T02:35:55;29.02;;;18.60;;
27558;SDS011;15002;52.028;5.670;2022-10-16T02:38:22;30.23;;;17.30;;
27558;SDS011;15002;52.028;5.670;2022-10-16T02:40:50;28.60;;;17.55;;
27558;SDS011;15002;52.028;5.670;2022-10-16T02:43:15;24.40;;;15.38;;
27558;SDS011;15002;52.028;5.670;2022-10-16T02:45:41;31.15;;;18.15;;
27558;SDS011;15002;52.028;5.670;2022-10-16T02:48:07;28.88;;;17.30;;
27558;SDS011;15002;52.028;5.670;2022-10-16T02:50:33;27.23;;;16.73;;
27558;SDS011;15002;52.028;5.670;2022-10-16T02:52:59;24.02;;;14.48;;
27558;SDS011;15002;52.028;5.670;2022-10-16T02:55:25;28.85;;;16.50;;
27558;SDS011;15002;52.028;5.670;2022-10-16T02:57:51;19.08;;;11.25;;
27558;SDS011;15002;52.028;5.670;2022-10-16T03:00:17;21.00;;;10.98;;
27558;SDS011;15002;52.028;5.670;2022-10-16T03:02:43;24.83;;;13.23;;
27558;SDS011;15002;52.028;5.670;2022-10-16T03:05:09;27.42;;;14.75;;
27558;SDS011;15002;52.028;5.670;2022-10-16T03:07:35;25.35;;;14.38;;
27558;SDS011;15002;52.028;5.670;2022-10-16T03:10:00;24.15;;;13.82;;
27558;SDS011;15002;52.028;5.670;2022-10-16T03:12:27;30.42;;;16.17;;
27558;SDS011;15002;52.028;5.670;2022-10-16T03:14:52;28.85;;;16.08;;
27558;SDS011;15002;52.028;5.670;2022-10-16T03:17:18;31.13;;;18.17;;
27558;SDS011;15002;52.028;5.670;2022-10-16T03:19:44;29.15;;;15.55;;
27558;SDS011;15002;52.028;5.670;2022-10-16T03:22:10;31.02;;;17.48;;
27558;SDS011;15002;52.028;5.670;2022-10-16T03:24:35;34.53;;;17.98;;
27558;SDS011;15002;52.028;5.670;2022-10-16T03:27:01;26.65;;;14.10;;
27558;SDS011;15002;52.028;5.670;2022-10-16T03:29:27;31.05;;;16.73;;
27558;SDS011;15002;52.028;5.670;2022-10-16T03:31:54;22.23;;;12.10;;
27558;SDS011;15002;52.028;5.670;2022-10-16T03:34:20;30.02;;;15.20;;
27558;SDS011;15002;52.028;5.670;2022-10-16T03:36:46;16.40;;;8.40;;
27558;SDS011;15002;52.028;5.670;2022-10-16T03:39:11;23.75;;;12.02;;
27558;SDS011;15002;52.028;5.670;2022-10-16T03:41:37;26.58;;;12.35;;
27558;SDS011;15002;52.028;5.670;2022-10-16T03:44:03;22.25;;;11.70;;
27558;SDS011;15002;52.028;5.670;2022-10-16T03:46:28;24.10;;;11.05;;
27558;SDS011;15002;52.028;5.670;2022-10-16T03:48:54;32.72;;;15.98;;
27558;SDS011;15002;52.028;5.670;2022-10-16T03:51:20;30.02;;;14.95;;
27558;SDS011;15002;52.028;5.670;2022-10-16T03:53:46;36.70;;;17.40;;
27558;SDS011;15002;52.028;5.670;2022-10-16T03:56:11;37.35;;;18.05;;
27558;SDS011;15002;52.028;5.670;2022-10-16T03:58:37;28.13;;;14.00;;
27558;SDS011;15002;52.028;5.670;2022-10-16T04:01:02;42.90;;;16.40;;
27558;SDS011;15002;52.028;5.670;2022-10-16T04:03:28;36.33;;;18.58;;
27558;SDS011;15002;52.028;5.670;2022-10-16T04:05:54;32.33;;;18.40;;
27558;SDS011;15002;52.028;5.670;2022-10-16T04:08:20;28.83;;;16.52;;
27558;SDS011;15002;52.028;5.670;2022-10-16T04:10:45;24.27;;;13.55;;
27558;SDS011;15002;52.028;5.670;2022-10-16T04:13:11;24.13;;;13.90;;
27558;SDS011;15002;52.028;5.670;2022-10-16T04:15:37;27.52;;;14.07;;
27558;SDS011;15002;52.028;5.670;2022-10-16T04:18:03;32.63;;;14.65;;
27558;SDS011;15002;52.028;5.670;2022-10-16T04:20:30;26.80;;;13.30;;
27558;SDS011;15002;52.028;5.670;2022-10-16T04:22:56;23.85;;;12.20;;
27558;SDS011;15002;52.028;5.670;2022-10-16T04:25:22;21.42;;;11.95;;
27558;SDS011;15002;52.028;5.670;2022-10-16T04:27:47;28.80;;;13.43;;
27558;SDS011;15002;52.028;5.670;2022-10-16T04:30:13;24.42;;;11.65;;
27558;SDS011;15002;52.028;5.670;2022-10-16T04:32:40;29.98;;;15.38;;
27558;SDS011;15002;52.028;5.670;2022-10-16T04:35:05;25.25;;;11.32;;
27558;SDS011;15002;52.028;5.670;2022-10-16T04:37:31;24.60;;;11.63;;
27558;SDS011;15002;52.028;5.670;2022-10-16T04:39:57;20.67;;;9.90;;
27558;SDS011;15002;52.028;5.670;2022-10-16T04:42:22;19.45;;;8.77;;
27558;SDS011;15002;52.028;5.670;2022-10-16T04:44:48;20.83;;;10.15;;
27558;SDS011;15002;52.028;5.670;2022-10-16T04:47:14;20.92;;;10.35;;
27558;SDS011;15002;52.028;5.670;2022-10-16T04:49:39;22.38;;;11.18;;
27558;SDS011;15002;52.028;5.670;2022-10-16T04:52:05;23.25;;;11.15;;
27558;SDS011;15002;52.028;5.670;2022-10-16T04:54:31;18.73;;;9.80;;
27558;SDS011;15002;52.028;5.670;2022-10-16T04:56:57;17.00;;;8.77;;
27558;SDS011;15002;52.028;5.670;2022-10-16T04:59:22;23.65;;;10.80;;
27558;SDS011;15002;52.028;5.670;2022-10-16T05:01:48;19.33;;;10.23;;
27558;SDS011;15002;52.028;5.670;2022-10-16T05:04:14;24.27;;;11.25;;
27558;SDS011;15002;52.028;5.670;2022-10-16T05:06:40;18.27;;;7.88;;
27558;SDS011;15002;52.028;5.670;2022-10-16T05:09:06;15.73;;;8.40;;
27558;SDS011;15002;52.028;5.670;2022-10-16T05:11:32;10.27;;;5.88;;
27558;SDS011;15002;52.028;5.670;2022-10-16T05:13:58;9.75;;;5.15;;
27558;SDS011;15002;52.028;5.670;2022-10-16T05:16:24;17.45;;;9.27;;
27558;SDS011;15002;52.028;5.670;2022-10-16T05:18:51;13.82;;;7.60;;
27558;SDS011;15002;52.028;5.670;2022-10-16T05:21:17;14.93;;;7.47;;
27558;SDS011;15002;52.028;5.670;2022-10-16T05:23:42;13.43;;;7.03;;
27558;SDS011;15002;52.028;5.670;2022-10-16T05:26:08;20.50;;;8.65;;
27558;SDS011;15002;52.028;5.670;2022-10-16T05:28:33;23.45;;;10.48;;
27558;SDS011;15002;52.028;5.670;2022-10-16T05:31:03;20.17;;;9.57;;
27558;SDS011;15002;52.028;5.670;2022-10-16T05:33:33;27.13;;;11.93;;
27558;SDS011;15002;52.028;5.670;2022-10-16T05:36:06;23.25;;;11.85;;
27558;SDS011;15002;52.028;5.670;2022-10-16T05:38:33;27.00;;;12.80;;
27558;SDS011;15002;52.028;5.670;2022-10-16T05:40:59;27.30;;;13.23;;
27558;SDS011;15002;52.028;5.670;2022-10-16T05:43:26;33.22;;;15.75;;
27558;SDS011;15002;52.028;5.670;2022-10-16T05:46:05;35.92;;;15.13;;
27558;SDS011;15002;52.028;5.670;2022-10-16T05:48:31;33.05;;;15.32;;
27558;SDS011;15002;52.028;5.670;2022-10-16T05:50:58;34.80;;;17.40;;
27558;SDS011;15002;52.028;5.670;2022-10-16T05:53:28;40.50;;;19.02;;
27558;SDS011;15002;52.028;5.670;2022-10-16T05:55:55;38.58;;;16.85;;
27558;SDS011;15002;52.028;5.670;2022-10-16T05:58:21;35.75;;;14.38;;
27558;SDS011;15002;52.028;5.670;2022-10-16T06:01:02;29.15;;;13.35;;
27558;SDS011;15002;52.028;5.670;2022-10-16T06:03:29;31.33;;;14.32;;
27558;SDS011;15002;52.028;5.670;2022-10-16T06:05:55;24.38;;;12.48;;
27558;SDS011;15002;52.028;5.670;2022-10-16T06:08:21;30.42;;;15.05;;
27558;SDS011;15002;52.028;5.670;2022-10-16T06:10:48;27.52;;;13.40;;
27558;SDS011;15002;52.028;5.670;2022-10-16T06:13:14;23.65;;;11.15;;
27558;SDS011;15002;52.028;5.670;2022-10-16T06:15:41;12.48;;;6.22;;
27558;SDS011;15002;52.028;5.670;2022-10-16T06:18:10;17.83;;;8.40;;
27558;SDS011;15002;52.028;5.670;2022-10-16T06:20:36;14.15;;;7.15;;
27558;SDS011;15002;52.028;5.670;2022-10-16T06:23:02;21.30;;;10.48;;
27558;SDS011;15002;52.028;5.670;2022-10-16T06:25:29;29.92;;;13.93;;
27558;SDS011;15002;52.028;5.670;2022-10-16T06:27:58;28.58;;;13.18;;
27558;SDS011;15002;52.028;5.670;2022-10-16T06:30:23;23.92;;;11.85;;
27558;SDS011;15002;52.028;5.670;2022-10-16T06:32:49;25.35;;;12.73;;
27558;SDS011;15002;52.028;5.670;2022-10-16T06:35:15;29.63;;;15.35;;
27558;SDS011;15002;52.028;5.670;2022-10-16T06:37:40;26.65;;;13.18;;
27558;SDS011;15002;52.028;5.670;2022-10-16T06:40:06;25.90;;;12.48;;
27558;SDS011;15002;52.028;5.670;2022-10-16T06:42:32;16.75;;;8.48;;
27558;SDS011;15002;52.028;5.670;2022-10-16T06:44:57;15.65;;;8.18;;
27558;SDS011;15002;52.028;5.670;2022-10-16T06:47:23;22.70;;;10.05;;
27558;SDS011;15002;52.028;5.670;2022-10-16T06:49:49;12.32;;;6.20;;
27558;SDS011;15002;52.028;5.670;2022-10-16T06:52:14;11.77;;;5.65;;
27558;SDS011;15002;52.028;5.670;2022-10-16T06:54:40;15.95;;;6.55;;
27558;SDS011;15002;52.028;5.670;2022-10-16T06:57:05;7.25;;;4.18;;
27558;SDS011;15002;52.028;5.670;2022-10-16T06:59:31;7.20;;;3.83;;
27558;SDS011;15002;52.028;5.670;2022-10-16T07:01:56;8.18;;;4.25;;
27558;SDS011;15002;52.028;5.670;2022-10-16T07:04:22;10.60;;;3.97;;
27558;SDS011;15002;52.028;5.670;2022-10-16T07:06:48;6.13;;;3.33;;
27558;SDS011;15002;52.028;5.670;2022-10-16T07:09:13;4.88;;;2.47;;
27558;SDS011;15002;52.028;5.670;2022-10-16T07:11:40;3.95;;;3.28;;
27558;SDS011;15002;52.028;5.670;2022-10-16T07:14:12;5.60;;;2.38;;
27558;SDS011;15002;52.028;5.670;2022-10-16T07:16:41;6.03;;;2.63;;
27558;SDS011;15002;52.028;5.670;2022-10-16T07:19:07;4.72;;;3.17;;
27558;SDS011;15002;52.028;5.670;2022-10-16T07:21:33;5.72;;;2.90;;
27558;SDS011;15002;52.028;5.670;2022-10-16T07:24:03;4.70;;;3.13;;
27558;SDS011;15002;52.028;5.670;2022-10-16T07:26:31;5.38;;;2.47;;
27558;SDS011;15002;52.028;5.670;2022-10-16T07:28:59;3.35;;;2.47;;
27558;SDS011;15002;52.028;5.670;2022-10-16T07:31:25;3.63;;;2.63;;
27558;SDS011;15002;52.028;5.670;2022-10-16T07:33:51;3.13;;;2.42;;
27558;SDS011;15002;52.028;5.670;2022-10-16T07:36:17;2.92;;;2.53;;
27558;SDS011;15002;52.028;5.670;2022-10-16T07:38:44;5.80;;;2.28;;
27558;SDS011;15002;52.028;5.670;2022-10-16T07:41:11;7.95;;;2.97;;
27558;SDS011;15002;52.028;5.670;2022-10-16T07:44:00;6.18;;;3.35;;
27558;SDS011;15002;52.028;5.670;2022-10-16T07:46:26;11.57;;;6.15;;
27558;SDS011;15002;52.028;5.670;2022-10-16T07:48:52;7.90;;;4.68;;
27558;SDS011;15002;52.028;5.670;2022-10-16T07:51:18;15.32;;;7.20;;
27558;SDS011;15002;52.028;5.670;2022-10-16T07:53:45;21.55;;;11.73;;
27558;SDS011;15002;52.028;5.670;2022-10-16T07:56:12;23.90;;;12.90;;
27558;SDS011;15002;52.028;5.670;2022-10-16T07:58:38;20.25;;;10.68;;
27558;SDS011;15002;52.028;5.670;2022-10-16T08:01:04;13.05;;;7.40;;
27558;SDS011;15002;52.028;5.670;2022-10-16T08:03:34;22.00;;;9.82;;
27558;SDS011;15002;52.028;5.670;2022-10-16T08:06:00;26.17;;;13.82;;
27558;SDS011;15002;52.028;5.670;2022-10-16T08:08:27;21.77;;;11.52;;
27558;SDS011;15002;52.028;5.670;2022-10-16T08:10:53;19.80;;;11.00;;
27558;SDS011;15002;52.028;5.670;2022-10-16T08:13:19;12.20;;;6.95;;
27558;SDS011;15002;52.028;5.670;2022-10-16T08:15:45;7.93;;;5.70;;
27558;SDS011;15002;52.028;5.670;2022-10-16T08:18:11;7.95;;;4.18;;
27558;SDS011;15002;52.028;5.670;2022-10-16T08:20:39;4.50;;;3.00;;
27558;SDS011;15002;52.028;5.670;2022-10-16T08:23:06;6.45;;;4.07;;
27558;SDS011;15002;52.028;5.670;2022-10-16T08:25:35;6.32;;;3.83;;
27558;SDS011;15002;52.028;5.670;2022-10-16T08:28:04;17.08;;;8.18;;
27558;SDS011;15002;52.028;5.670;2022-10-16T08:30:31;8.27;;;4.50;;
27558;SDS011;15002;52.028;5.670;2022-10-16T08:32:57;10.45;;;4.53;;
27558;SDS011;15002;52.028;5.670;2022-10-16T08:35:23;10.43;;;5.13;;
27558;SDS011;15002;52.028;5.670;2022-10-16T08:37:49;8.27;;;3.55;;
27558;SDS011;15002;52.028;5.670;2022-10-16T08:40:22;7.45;;;3.97;;
27558;SDS011;15002;52.028;5.670;2022-10-16T08:48:52;6.25;;;2.65;;
27558;SDS011;15002;52.028;5.670;2022-10-16T08:51:40;4.22;;;3.08;;
27558;SDS011;15002;52.028;5.670;2022-10-16T08:54:12;5.10;;;2.80;;
27558;SDS011;15002;52.028;5.670;2022-10-16T08:56:41;7.20;;;3.00;;
27558;SDS011;15002;52.028;5.670;2022-10-16T08:59:06;4.68;;;2.28;;
27558;SDS011;15002;52.028;5.670;2022-10-16T09:01:40;9.90;;;2.58;;
27558;SDS011;15002;52.028;5.670;2022-10-16T09:12:36;5.60;;;2.55;;
27558;SDS011;15002;52.028;5.670;2022-10-16T09:23:19;5.40;;;1.80;;
27558;SDS011;15002;52.028;5.670;2022-10-16T09:25:51;4.55;;;2.22;;
27558;SDS011;15002;52.028;5.670;2022-10-16T09:28:18;6.50;;;1.98;;
27558;SDS011;15002;52.028;5.670;2022-10-16T09:30:44;8.80;;;2.53;;
27558;SDS011;15002;52.028;5.670;2022-10-16T09:33:11;7.05;;;1.77;;
27558;SDS011;15002;52.028;5.670;2022-10-16T09:35:42;6.72;;;1.83;;
27558;SDS011;15002;52.028;5.670;2022-10-16T09:38:27;8.57;;;2.15;;
27558;SDS011;15002;52.028;5.670;2022-10-16T09:41:01;7.95;;;2.05;;
27558;SDS011;15002;52.028;5.670;2022-10-16T09:43:49;8.65;;;2.30;;
27558;SDS011;15002;52.028;5.670;2022-10-16T09:46:24;7.93;;;2.35;;
27558;SDS011;15002;52.028;5.670;2022-10-16T09:48:59;6.25;;;1.90;;
27558;SDS011;15002;52.028;5.670;2022-10-16T09:51:33;7.53;;;2.28;;
27558;SDS011;15002;52.028;5.670;2022-10-16T09:56:39;7.40;;;2.20;;
27558;SDS011;15002;52.028;5.670;2022-10-16T09:59:10;7.93;;;1.85;;
27558;SDS011;15002;52.028;5.670;2022-10-16T10:01:38;5.90;;;1.92;;
27558;SDS011;15002;52.028;5.670;2022-10-16T10:04:06;10.52;;;2.15;;
27558;SDS011;15002;52.028;5.670;2022-10-16T10:06:36;9.20;;;2.00;;
27558;SDS011;15002;52.028;5.670;2022-10-16T10:09:15;7.75;;;2.00;;
27558;SDS011;15002;52.028;5.670;2022-10-16T10:11:49;11.13;;;2.75;;
27558;SDS011;15002;52.028;5.670;2022-10-16T10:19:43;10.68;;;1.98;;
27558;SDS011;15002;52.028;5.670;2022-10-16T10:30:27;9.38;;;2.00;;
27558;SDS011;15002;52.028;5.670;2022-10-16T10:32:59;6.35;;;2.03;;
27558;SDS011;15002;52.028;5.670;2022-10-16T10:38:28;9.60;;;1.75;;
27558;SDS011;15002;52.028;5.670;2022-10-16T10:43:52;14.02;;;3.38;;
27558;SDS011;15002;52.028;5.670;2022-10-16T10:46:30;10.25;;;2.03;;
27558;SDS011;15002;52.028;5.670;2022-10-16T10:49:03;11.10;;;1.80;;
27558;SDS011;15002;52.028;5.670;2022-10-16T10:56:50;8.45;;;1.67;;
27558;SDS011;15002;52.028;5.670;2022-10-16T11:02:26;8.73;;;2.05;;
27558;SDS011;15002;52.028;5.670;2022-10-16T11:07:27;7.60;;;1.60;;
27558;SDS011;15002;52.028;5.670;2022-10-16T11:10:04;10.82;;;2.45;;
27558;SDS011;15002;52.028;5.670;2022-10-16T11:12:47;10.80;;;2.10;;
27558;SDS011;15002;52.028;5.670;2022-10-16T11:15:35;7.57;;;1.70;;
27558;SDS011;15002;52.028;5.670;2022-10-16T11:20:47;10.65;;;1.50;;
27558;SDS011;15002;52.028;5.670;2022-10-16T11:23:39;6.68;;;1.70;;
27558;SDS011;15002;52.028;5.670;2022-10-16T11:26:04;7.78;;;2.00;;
27558;SDS011;15002;52.028;5.670;2022-10-16T11:29:12;11.32;;;2.03;;
27558;SDS011;15002;52.028;5.670;2022-10-16T11:31:39;7.55;;;1.73;;
27558;SDS011;15002;52.028;5.670;2022-10-16T11:39:41;11.63;;;1.95;;
27558;SDS011;15002;52.028;5.670;2022-10-16T11:42:10;8.88;;;1.70;;
27558;SDS011;15002;52.028;5.670;2022-10-16T11:49:45;8.18;;;1.60;;
27558;SDS011;15002;52.028;5.670;2022-10-16T11:52:17;7.10;;;1.15;;
27558;SDS011;15002;52.028;5.670;2022-10-16T11:55:02;12.02;;;1.85;;
27558;SDS011;15002;52.028;5.670;2022-10-16T11:57:39;11.23;;;1.55;;
27558;SDS011;15002;52.028;5.670;2022-10-16T12:00:10;7.78;;;1.42;;
27558;SDS011;15002;52.028;5.670;2022-10-16T12:08:20;8.15;;;1.27;;
27558;SDS011;15002;52.028;5.670;2022-10-16T12:10:46;6.53;;;1.80;;
27558;SDS011;15002;52.028;5.670;2022-10-16T12:13:32;8.68;;;1.60;;
27558;SDS011;15002;52.028;5.670;2022-10-16T12:18:38;8.60;;;1.60;;
27558;SDS011;15002;52.028;5.670;2022-10-16T12:21:09;11.95;;;1.70;;
27558;SDS011;15002;52.028;5.670;2022-10-16T12:26:27;9.60;;;1.70;;
27558;SDS011;15002;52.028;5.670;2022-10-16T12:28:55;9.77;;;1.50;;
27558;SDS011;15002;52.028;5.670;2022-10-16T12:31:45;8.35;;;1.50;;
27558;SDS011;15002;52.028;5.670;2022-10-16T12:34:21;14.07;;;2.08;;
27558;SDS011;15002;52.028;5.670;2022-10-16T12:36:54;8.82;;;1.42;;
27558;SDS011;15002;52.028;5.670;2022-10-16T12:39:32;12.48;;;2.70;;
27558;SDS011;15002;52.028;5.670;2022-10-16T12:42:05;6.57;;;1.20;;
27558;SDS011;15002;52.028;5.670;2022-10-16T12:45:13;10.57;;;1.30;;
27558;SDS011;15002;52.028;5.670;2022-10-16T12:47:53;10.23;;;1.80;;
27558;SDS011;15002;52.028;5.670;2022-10-16T12:52:56;6.18;;;1.65;;
27558;SDS011;15002;52.028;5.670;2022-10-16T12:55:22;8.73;;;1.50;;
27558;SDS011;15002;52.028;5.670;2022-10-16T13:00:35;11.25;;;1.83;;
27558;SDS011;15002;52.028;5.670;2022-10-16T13:08:26;11.90;;;1.50;;
27558;SDS011;15002;52.028;5.670;2022-10-16T13:19:24;9.30;;;1.55;;
27558;SDS011;15002;52.028;5.670;2022-10-16T13:22:15;9.48;;;2.20;;
27558;SDS011;15002;52.028;5.670;2022-10-16T13:27:45;5.75;;;1.10;;
27558;SDS011;15002;52.028;5.670;2022-10-16T13:30:31;10.38;;;1.38;;
27558;SDS011;15002;52.028;5.670;2022-10-16T13:33:20;9.07;;;1.52;;
27558;SDS011;15002;52.028;5.670;2022-10-16T13:35:47;10.02;;;1.75;;
27558;SDS011;15002;52.028;5.670;2022-10-16T13:38:16;7.57;;;1.25;;
27558;SDS011;15002;52.028;5.670;2022-10-16T13:40:53;8.40;;;1.30;;
27558;SDS011;15002;52.028;5.670;2022-10-16T13:46:07;7.45;;;1.65;;
27558;SDS011;15002;52.028;5.670;2022-10-16T13:48:41;6.35;;;1.40;;
27558;SDS011;15002;52.028;5.670;2022-10-16T13:53:38;9.88;;;1.77;;
27558;SDS011;15002;52.028;5.670;2022-10-16T13:56:06;8.73;;;1.83;;
27558;SDS011;15002;52.028;5.670;2022-10-16T13:58:35;7.35;;;1.60;;
27558;SDS011;15002;52.028;5.670;2022-10-16T14:01:02;10.80;;;1.67;;
27558;SDS011;15002;52.028;5.670;2022-10-16T14:03:30;9.55;;;1.60;;
27558;SDS011;15002;52.028;5.670;2022-10-16T14:05:59;7.10;;;1.70;;
27558;SDS011;15002;52.028;5.670;2022-10-16T14:08:28;13.27;;;1.85;;
27558;SDS011;15002;52.028;5.670;2022-10-16T14:10:59;9.65;;;1.60;;
27558;SDS011;15002;52.028;5.670;2022-10-16T14:13:34;5.10;;;1.55;;
27558;SDS011;15002;52.028;5.670;2022-10-16T14:16:07;13.77;;;3.80;;
27558;SDS011;15002;52.028;5.670;2022-10-16T14:18:57;25.13;;;5.70;;
27558;SDS011;15002;52.028;5.670;2022-10-16T14:21:30;13.15;;;3.85;;
27558;SDS011;15002;52.028;5.670;2022-10-16T14:23:57;12.05;;;2.53;;
27558;SDS011;15002;52.028;5.670;2022-10-16T14:26:23;9.43;;;2.08;;
27558;SDS011;15002;52.028;5.670;2022-10-16T14:29:12;5.77;;;1.53;;
27558;SDS011;15002;52.028;5.670;2022-10-16T14:31:40;8.75;;;1.83;;
27558;SDS011;15002;52.028;5.670;2022-10-16T14:34:52;12.15;;;1.80;;
27558;SDS011;15002;52.028;5.670;2022-10-16T14:36:52;7.10;;;1.45;;
27558;SDS011;15002;52.028;5.670;2022-10-16T14:39:20;7.72;;;1.75;;
27558;SDS011;15002;52.028;5.670;2022-10-16T14:41:48;7.18;;;1.38;;
27558;SDS011;15002;52.028;5.670;2022-10-16T14:44:16;8.07;;;1.73;;
27558;SDS011;15002;52.028;5.670;2022-10-16T14:46:43;8.18;;;1.67;;
27558;SDS011;15002;52.028;5.670;2022-10-16T14:51:39;12.82;;;2.50;;
27558;SDS011;15002;52.028;5.670;2022-10-16T14:56:54;15.63;;;2.17;;
27558;SDS011;15002;52.028;5.670;2022-10-16T14:59:25;10.05;;;1.83;;
27558;SDS011;15002;52.028;5.670;2022-10-16T15:02:02;10.18;;;1.70;;
27558;SDS011;15002;52.028;5.670;2022-10-16T15:04:53;11.82;;;2.72;;
27558;SDS011;15002;52.028;5.670;2022-10-16T15:07:18;9.80;;;2.00;;
27558;SDS011;15002;52.028;5.670;2022-10-16T15:09:44;12.98;;;2.00;;
27558;SDS011;15002;52.028;5.670;2022-10-16T15:12:10;7.53;;;1.90;;
27558;SDS011;15002;52.028;5.670;2022-10-16T15:14:35;8.18;;;1.90;;
27558;SDS011;15002;52.028;5.670;2022-10-16T15:17:02;13.23;;;2.15;;
27558;SDS011;15002;52.028;5.670;2022-10-16T15:19:28;15.07;;;4.13;;
27558;SDS011;15002;52.028;5.670;2022-10-16T15:21:54;11.57;;;3.15;;
27558;SDS011;15002;52.028;5.670;2022-10-16T15:24:19;10.63;;;4.43;;
27558;SDS011;15002;52.028;5.670;2022-10-16T15:26:45;16.38;;;3.97;;
27558;SDS011;15002;52.028;5.670;2022-10-16T15:29:11;14.63;;;3.30;;
27558;SDS011;15002;52.028;5.670;2022-10-16T15:31:37;17.35;;;3.80;;
27558;SDS011;15002;52.028;5.670;2022-10-16T15:34:03;16.80;;;3.90;;
27558;SDS011;15002;52.028;5.670;2022-10-16T15:36:35;16.17;;;3.78;;
27558;SDS011;15002;52.028;5.670;2022-10-16T15:41:37;10.10;;;2.85;;
27558;SDS011;15002;52.028;5.670;2022-10-16T15:44:03;17.33;;;3.40;;
27558;SDS011;15002;52.028;5.670;2022-10-16T15:46:28;19.13;;;2.33;;
27558;SDS011;15002;52.028;5.670;2022-10-16T15:48:56;6.50;;;1.88;;
27558;SDS011;15002;52.028;5.670;2022-10-16T15:51:23;9.43;;;2.78;;
27558;SDS011;15002;52.028;5.670;2022-10-16T15:53:50;15.77;;;2.00;;
27558;SDS011;15002;52.028;5.670;2022-10-16T15:56:16;8.50;;;2.13;;
27558;SDS011;15002;52.028;5.670;2022-10-16T15:58:42;8.90;;;1.95;;
27558;SDS011;15002;52.028;5.670;2022-10-16T16:01:09;11.05;;;2.35;;
27558;SDS011;15002;52.028;5.670;2022-10-16T16:03:35;11.35;;;2.50;;
27558;SDS011;15002;52.028;5.670;2022-10-16T16:06:09;17.95;;;3.22;;
27558;SDS011;15002;52.028;5.670;2022-10-16T16:08:36;10.60;;;2.45;;
27558;SDS011;15002;52.028;5.670;2022-10-16T16:11:04;10.98;;;2.40;;
27558;SDS011;15002;52.028;5.670;2022-10-16T16:13:34;11.98;;;2.50;;
27558;SDS011;15002;52.028;5.670;2022-10-16T16:16:04;9.10;;;2.00;;
27558;SDS011;15002;52.028;5.670;2022-10-16T16:18:32;9.60;;;2.45;;
27558;SDS011;15002;52.028;5.670;2022-10-16T16:20:58;9.63;;;2.80;;
27558;SDS011;15002;52.028;5.670;2022-10-16T16:23:23;9.95;;;2.00;;
27558;SDS011;15002;52.028;5.670;2022-10-16T16:31:27;12.55;;;2.20;;
27558;SDS011;15002;52.028;5.670;2022-10-16T16:33:54;7.57;;;2.17;;
27558;SDS011;15002;52.028;5.670;2022-10-16T16:36:21;10.85;;;2.00;;
27558;SDS011;15002;52.028;5.670;2022-10-16T16:38:48;14.35;;;2.28;;
27558;SDS011;15002;52.028;5.670;2022-10-16T16:41:14;6.53;;;2.08;;
27558;SDS011;15002;52.028;5.670;2022-10-16T16:43:40;10.73;;;2.33;;
27558;SDS011;15002;52.028;5.670;2022-10-16T16:46:06;13.23;;;2.95;;
27558;SDS011;15002;52.028;5.670;2022-10-16T16:48:32;8.85;;;2.40;;
27558;SDS011;15002;52.028;5.670;2022-10-16T16:51:04;13.93;;;3.28;;
27558;SDS011;15002;52.028;5.670;2022-10-16T16:53:33;9.20;;;2.00;;
27558;SDS011;15002;52.028;5.670;2022-10-16T16:56:03;11.00;;;2.33;;
27558;SDS011;15002;52.028;5.670;2022-10-16T16:58:30;20.88;;;5.03;;
27558;SDS011;15002;52.028;5.670;2022-10-16T17:00:56;9.65;;;2.05;;
27558;SDS011;15002;52.028;5.670;2022-10-16T17:03:26;8.55;;;2.13;;